Time;durP1;ratioP1;P1;durP2;ratioP2;P2;SDS_P1;SDS_P2;PMS_P1;PMS_P2;Temp;Humidity;BMP_temperature;BMP_pressure;BME280_temperature;BME280_humidity;BME280_pressure;Samples;Min_cycle;Max_cycle;Signal;HPM_P1;HPM_P2
2024/01/10 00:00:05;;;;;;;20.05;10.43;;;-1.60;1.00;;;;;;5051447;28;20201;-79
2024/01/10 00:02:34;;;;;;;19.35;12.13;;;-1.50;1.00;;;;;;5048745;28;20221;-80
2024/01/10 00:05:03;;;;;;;15.95;11.10;;;-1.60;7.40;;;;;;5056442;28;20227;-79
2024/01/10 00:07:33;;;;;;;17.55;12.60;;;-1.60;1.00;;;;;;5047616;28;20214;-79
2024/01/10 00:10:01;;;;;;;14.85;11.30;;;-1.60;8.00;;;;;;5052489;28;20204;-77
2024/01/10 00:12:35;;;;;;;20.50;12.68;;;-1.60;1.00;;;;;;5051262;28;20225;-78
2024/01/10 00:15:05;;;;;;;19.35;14.20;;;-1.50;1.00;;;;;;5052459;28;20275;-81
2024/01/10 00:17:34;;;;;;;18.17;12.23;;;-1.50;1.50;;;;;;5050334;28;20209;-79
2024/01/10 00:20:02;;;;;;;20.30;13.73;;;-1.60;1.00;;;;;;5048263;28;20200;-79
2024/01/10 00:22:31;;;;;;;21.77;13.95;;;-1.60;1.00;;;;;;5048476;28;20235;-80
2024/01/10 00:24:59;;;;;;;15.27;11.60;;;-1.60;1.00;;;;;;5048518;28;20198;-78
2024/01/10 00:27:27;;;;;;;21.33;12.80;;;-1.60;1.60;;;;;;5051048;28;20237;-77
2024/01/10 00:29:57;;;;;;;16.42;12.52;;;-1.60;3.00;;;;;;5050846;28;20202;-77
2024/01/10 00:32:26;;;;;;;15.60;11.02;;;-1.60;4.40;;;;;;5049604;28;20304;-80
2024/01/10 00:34:54;;;;;;;25.42;14.00;;;-1.60;3.50;;;;;;5049677;28;20209;-80
2024/01/10 00:37:22;;;;;;;16.27;12.25;;;-1.60;3.00;;;;;;5052481;28;20204;-78
2024/01/10 00:39:51;;;;;;;18.58;12.60;;;-1.70;2.60;;;;;;5054283;28;20197;-81
2024/01/10 00:42:19;;;;;;;18.33;12.93;;;-1.70;2.50;;;;;;5052829;28;20227;-79
2024/01/10 00:44:47;;;;;;;19.05;13.65;;;-1.60;2.90;;;;;;5046233;28;20285;-80
2024/01/10 00:47:17;;;;;;;27.95;14.20;;;-1.60;2.90;;;;;;5052445;28;20202;-79
2024/01/10 00:49:45;;;;;;;19.77;11.90;;;-1.60;5.10;;;;;;5050743;28;20296;-81
2024/01/10 00:52:14;;;;;;;19.95;13.43;;;-1.50;4.10;;;;;;5045979;28;20255;-79
2024/01/10 00:54:43;;;;;;;20.25;12.48;;;-1.40;7.40;;;;;;5054136;28;20232;-79
2024/01/10 00:57:12;;;;;;;17.20;12.00;;;-1.40;8.00;;;;;;5051339;28;20205;-78
2024/01/10 00:59:40;;;;;;;17.83;12.02;;;-1.40;20.90;;;;;;5054521;28;20202;-78
2024/01/10 01:02:08;;;;;;;15.32;11.43;;;-1.40;11.40;;;;;;5047935;28;20279;-78
2024/01/10 01:04:38;;;;;;;22.00;13.27;;;-1.40;10.60;;;;;;5044837;28;20239;-77
2024/01/10 01:07:07;;;;;;;18.23;11.50;;;-1.40;10.10;;;;;;5050860;28;20701;-77
2024/01/10 01:09:35;;;;;;;16.77;12.02;;;-1.40;9.80;;;;;;5050116;28;20201;-78
2024/01/10 01:12:04;;;;;;;18.95;11.13;;;-1.30;8.60;;;;;;5046395;28;20217;-79
2024/01/10 01:14:33;;;;;;;18.25;12.63;;;-1.30;13.10;;;;;;5047163;28;20213;-77
2024/01/10 01:17:01;;;;;;;22.02;13.32;;;-1.30;13.20;;;;;;5045201;28;20282;-79
2024/01/10 01:19:29;;;;;;;15.82;10.32;;;-1.20;12.00;;;;;;5046676;28;20220;-78
2024/01/10 01:21:59;;;;;;;14.85;10.15;;;-1.30;10.20;;;;;;5050838;28;20296;-79
2024/01/10 01:24:27;;;;;;;11.60;8.95;;;-1.20;5.00;;;;;;5052183;28;20213;-77
2024/01/10 01:26:55;;;;;;;12.70;8.77;;;-1.20;3.90;;;;;;5051187;28;20216;-78
2024/01/10 01:29:24;;;;;;;14.38;10.35;;;-1.20;1.00;;;;;;5045376;28;20194;-76
2024/01/10 01:31:53;;;;;;;13.93;9.00;;;-1.20;1.00;;;;;;5048337;28;20201;-77
2024/01/10 01:34:22;;;;;;;12.50;8.30;;;-1.20;1.00;;;;;;5046963;28;20221;-76
2024/01/10 01:36:51;;;;;;;14.82;10.00;;;-1.20;1.00;;;;;;5046148;28;20208;-77
2024/01/10 01:39:21;;;;;;;12.88;9.25;;;-1.20;1.00;;;;;;5045781;28;20200;-79
2024/01/10 01:41:49;;;;;;;10.15;9.13;;;-1.10;1.00;;;;;;5045229;28;20287;-77
2024/01/10 01:44:18;;;;;;;16.05;10.57;;;-1.10;1.00;;;;;;5049545;28;20205;-81
2024/01/10 01:46:47;;;;;;;13.55;9.70;;;-1.10;1.00;;;;;;5048997;28;20210;-79
2024/01/10 01:49:16;;;;;;;12.48;9.13;;;-1.10;1.00;;;;;;5048774;28;20198;-80
2024/01/10 01:51:46;;;;;;;12.75;8.40;;;-1.10;1.00;;;;;;5047647;28;20197;-80
2024/01/10 01:54:14;;;;;;;11.27;9.63;;;-1.10;1.00;;;;;;5051858;28;20201;-80
2024/01/10 01:56:45;;;;;;;12.55;9.13;;;-1.20;1.00;;;;;;5056052;28;20293;-78
2024/01/10 01:59:14;;;;;;;10.98;9.25;;;-1.20;1.00;;;;;;5053979;28;20240;-78
2024/01/10 02:01:43;;;;;;;12.13;9.35;;;-1.20;1.00;;;;;;5048737;28;20197;-77
2024/01/10 02:04:11;;;;;;;16.13;8.70;;;-1.20;1.00;;;;;;5055533;28;20208;-77
2024/01/10 02:06:40;;;;;;;12.85;8.27;;;-1.20;1.00;;;;;;5050933;28;20289;-79
2024/01/10 02:09:08;;;;;;;14.43;8.38;;;-1.30;1.00;;;;;;5052020;28;20208;-80
2024/01/10 02:11:37;;;;;;;12.20;9.32;;;-1.30;1.00;;;;;;5050544;28;20348;-79
2024/01/10 02:14:07;;;;;;;11.90;9.07;;;-1.30;1.00;;;;;;5054223;28;20213;-77
2024/01/10 02:16:35;;;;;;;13.02;9.15;;;-1.30;1.00;;;;;;5049034;28;20988;-78
2024/01/10 02:19:19;;;;;;;14.30;8.85;;;-1.20;1.00;;;;;;5051965;28;20190;-79
2024/01/10 02:21:47;;;;;;;12.57;9.05;;;-1.30;1.00;;;;;;5056866;28;20233;-80
2024/01/10 02:24:15;;;;;;;13.38;8.57;;;-1.30;1.00;;;;;;5052404;28;20226;-79
2024/01/10 02:26:45;;;;;;;13.32;8.73;;;-1.20;1.00;;;;;;5052438;28;20214;-77
2024/01/10 02:29:13;;;;;;;14.18;9.82;;;-1.10;1.00;;;;;;5053992;28;20209;-78
2024/01/10 02:31:42;;;;;;;12.35;9.07;;;-1.10;1.00;;;;;;5053760;28;20252;-78
2024/01/10 02:34:10;;;;;;;13.85;9.02;;;-1.10;1.00;;;;;;5050183;28;20843;-81
2024/01/10 02:36:39;;;;;;;12.77;8.45;;;-1.10;1.00;;;;;;5053951;28;20217;-81
2024/01/10 02:39:07;;;;;;;12.63;9.15;;;-1.20;1.00;;;;;;5054722;28;20740;-80
2024/01/10 02:41:35;;;;;;;14.05;9.27;;;-1.20;1.00;;;;;;5056272;28;20205;-79
2024/01/10 02:44:06;;;;;;;19.17;9.32;;;-1.20;1.00;;;;;;5054543;28;20217;-79
2024/01/10 02:46:34;;;;;;;11.98;8.25;;;-1.20;1.00;;;;;;5048035;28;20288;-77
2024/01/10 02:49:02;;;;;;;16.40;7.60;;;-1.30;1.00;;;;;;5051831;28;20207;-78
2024/01/10 02:51:32;;;;;;;15.38;8.80;;;-1.30;1.00;;;;;;5046680;28;20672;-79
2024/01/10 02:54:01;;;;;;;13.38;8.15;;;-1.20;1.00;;;;;;5049516;28;20225;-79
2024/01/10 02:56:29;;;;;;;14.23;10.10;;;-1.20;1.00;;;;;;5053272;28;20414;-81
2024/01/10 02:58:57;;;;;;;16.60;9.25;;;-1.10;1.00;;;;;;5052508;28;20292;-79
2024/01/10 03:01:27;;;;;;;13.95;9.60;;;-1.10;1.00;;;;;;5048428;28;20197;-78
2024/01/10 03:03:55;;;;;;;13.60;9.52;;;-1.10;1.00;;;;;;5054065;28;20652;-78
2024/01/10 03:06:24;;;;;;;14.55;9.15;;;-1.10;1.00;;;;;;5052282;28;20714;-80
2024/01/10 03:08:53;;;;;;;13.48;9.05;;;-1.20;1.00;;;;;;5051935;28;20204;-78
2024/01/10 03:11:21;;;;;;;17.00;10.07;;;-1.20;1.00;;;;;;5050881;28;20292;-77
2024/01/10 03:13:53;;;;;;;15.50;9.27;;;-1.20;1.00;;;;;;5048281;28;20224;-78
2024/01/10 03:16:21;;;;;;;11.63;8.38;;;-1.20;1.00;;;;;;5049698;28;20299;-77
2024/01/10 03:18:51;;;;;;;14.93;9.55;;;-1.20;1.00;;;;;;5055032;28;20205;-79
2024/01/10 03:21:24;;;;;;;14.00;8.70;;;-1.10;1.00;;;;;;5047598;28;20907;-77
2024/01/10 03:23:53;;;;;;;12.57;8.77;;;-1.10;1.00;;;;;;5047309;28;20209;-78
2024/01/10 03:26:21;;;;;;;11.05;8.40;;;-1.10;1.00;;;;;;5041374;28;20694;-76
2024/01/10 03:28:49;;;;;;;11.82;9.63;;;-1.10;1.00;;;;;;5054442;28;20225;-79
2024/01/10 03:31:18;;;;;;;13.88;8.95;;;-1.20;1.00;;;;;;5050929;28;20216;-79
2024/01/10 03:33:47;;;;;;;14.68;9.18;;;-1.20;1.00;;;;;;5053271;28;20217;-79
2024/01/10 03:36:18;;;;;;;11.88;8.07;;;-1.20;1.00;;;;;;5050101;28;20225;-80
2024/01/10 03:38:46;;;;;;;12.27;8.88;;;-1.20;1.00;;;;;;5046008;28;20230;-81
2024/01/10 03:41:15;;;;;;;11.27;8.38;;;-1.20;1.00;;;;;;5044399;28;20247;-82
2024/01/10 03:43:44;;;;;;;11.40;8.65;;;-1.20;1.00;;;;;;5054935;28;20219;-80
2024/01/10 03:46:13;;;;;;;18.83;9.18;;;-1.30;1.00;;;;;;5046796;28;20277;-79
2024/01/10 03:48:47;;;;;;;12.32;9.55;;;-1.30;1.00;;;;;;5047991;28;20255;-78
2024/01/10 03:51:18;;;;;;;17.80;8.65;;;-1.30;1.00;;;;;;5043814;28;20291;-78
2024/01/10 03:53:48;;;;;;;15.55;9.30;;;-1.30;1.00;;;;;;5044725;28;20368;-80
2024/01/10 03:56:17;;;;;;;15.10;9.27;;;-1.30;1.00;;;;;;5049026;28;20217;-81
2024/01/10 03:58:48;;;;;;;15.38;8.82;;;-1.40;1.00;;;;;;5046514;28;20219;-80
2024/01/10 04:01:17;;;;;;;13.57;9.68;;;-1.30;1.00;;;;;;5045695;28;20220;-79
2024/01/10 04:03:45;;;;;;;12.77;9.27;;;-1.40;1.00;;;;;;5051496;28;20303;-79
2024/01/10 04:06:13;;;;;;;13.32;8.77;;;-1.60;1.00;;;;;;5054570;28;20220;-78
2024/01/10 04:08:43;;;;;;;12.43;8.68;;;-1.60;1.00;;;;;;5047599;28;20201;-79
2024/01/10 04:11:11;;;;;;;13.52;8.05;;;-1.70;1.00;;;;;;5048025;28;20197;-77
2024/01/10 04:13:40;;;;;;;14.10;8.77;;;-1.70;1.00;;;;;;5049310;28;20232;-78
2024/01/10 04:16:08;;;;;;;13.80;8.95;;;-1.60;1.00;;;;;;5047873;28;20200;-78
2024/01/10 04:18:37;;;;;;;13.95;8.95;;;-1.40;1.00;;;;;;5048833;28;20202;-78
2024/01/10 04:21:06;;;;;;;12.27;8.00;;;-1.60;1.00;;;;;;5052207;28;20202;-78
2024/01/10 04:23:34;;;;;;;15.15;9.82;;;-1.50;1.00;;;;;;5048373;28;20249;-80
2024/01/10 04:26:04;;;;;;;14.75;9.80;;;-1.40;1.00;;;;;;5053832;28;20250;-79
2024/01/10 04:28:33;;;;;;;16.60;9.93;;;-1.50;1.00;;;;;;5045015;28;20197;-78
2024/01/10 04:31:01;;;;;;;17.30;9.80;;;-1.40;1.00;;;;;;5043987;28;20200;-75
2024/01/10 04:33:29;;;;;;;13.75;8.40;;;-1.50;1.00;;;;;;5050961;28;20218;-78
2024/01/10 04:35:57;;;;;;;13.95;9.57;;;-1.50;1.00;;;;;;5051190;28;20221;-77
2024/01/10 04:38:26;;;;;;;15.63;9.07;;;-1.50;1.00;;;;;;5048517;28;20194;-78
2024/01/10 04:40:55;;;;;;;15.40;10.07;;;-1.50;1.00;;;;;;5051226;28;20202;-78
2024/01/10 04:43:25;;;;;;;15.40;9.77;;;-1.40;1.00;;;;;;5055630;28;20312;-79
2024/01/10 04:45:53;;;;;;;13.55;9.23;;;-1.40;1.00;;;;;;5048365;28;20198;-78
2024/01/10 04:48:22;;;;;;;14.07;9.93;;;-1.40;1.00;;;;;;5047639;28;20283;-76
2024/01/10 04:50:50;;;;;;;15.18;10.50;;;-1.40;1.00;;;;;;5046969;28;20228;-78
2024/01/10 04:53:19;;;;;;;17.65;10.80;;;-1.50;1.00;;;;;;5044854;28;20228;-78
2024/01/10 04:55:47;;;;;;;14.93;10.05;;;-1.50;1.00;;;;;;5045246;28;20208;-77
2024/01/10 04:58:19;;;;;;;18.33;10.35;;;-1.50;1.00;;;;;;5048601;28;20193;-79
2024/01/10 05:00:48;;;;;;;16.48;9.75;;;-1.40;1.00;;;;;;5039832;28;20357;-79
2024/01/10 05:03:17;;;;;;;16.70;9.70;;;-1.40;1.00;;;;;;5044524;28;20222;-79
2024/01/10 05:05:45;;;;;;;13.95;10.05;;;-1.50;1.00;;;;;;5048145;28;20218;-77
2024/01/10 05:08:13;;;;;;;17.58;13.10;;;-1.60;1.00;;;;;;5040120;28;20987;-78
2024/01/10 05:10:42;;;;;;;18.55;11.63;;;-1.60;1.00;;;;;;5045970;28;20736;-78
2024/01/10 05:13:10;;;;;;;17.83;10.27;;;-1.40;1.00;;;;;;5046687;28;20221;-77
2024/01/10 05:15:38;;;;;;;15.35;11.73;;;-1.30;1.00;;;;;;5045434;28;20202;-79
2024/01/10 05:18:08;;;;;;;12.75;10.10;;;-1.30;1.00;;;;;;5049833;28;20224;-78
2024/01/10 05:20:37;;;;;;;15.23;10.18;;;-1.40;1.00;;;;;;5047280;28;20201;-78
2024/01/10 05:23:05;;;;;;;17.15;11.15;;;-1.40;1.00;;;;;;5051098;28;20225;-79
2024/01/10 05:25:33;;;;;;;15.50;10.93;;;-1.40;1.00;;;;;;5052668;28;20202;-79
2024/01/10 05:28:02;;;;;;;14.98;9.70;;;-1.50;1.00;;;;;;5051567;28;20193;-80
2024/01/10 05:30:31;;;;;;;17.52;11.30;;;-1.50;1.00;;;;;;5049957;28;20206;-78
2024/01/10 05:33:00;;;;;;;12.90;9.20;;;-1.50;1.00;;;;;;5049746;28;20225;-80
2024/01/10 05:35:30;;;;;;;17.30;11.82;;;-1.50;1.00;;;;;;5050186;28;20192;-79
2024/01/10 05:37:58;;;;;;;13.48;9.57;;;-1.30;1.00;;;;;;5054687;28;20213;-79
2024/01/10 05:40:27;;;;;;;17.65;10.65;;;-1.30;1.00;;;;;;5050588;28;20280;-80
2024/01/10 05:42:55;;;;;;;15.43;10.20;;;-1.40;1.00;;;;;;5053449;28;20344;-77
2024/01/10 05:45:23;;;;;;;15.40;10.45;;;-1.40;1.00;;;;;;5049295;28;20620;-78
2024/01/10 05:47:52;;;;;;;17.20;11.45;;;-1.40;1.00;;;;;;5045472;28;20879;-77
2024/01/10 05:50:20;;;;;;;13.95;9.45;;;-1.50;1.00;;;;;;5054872;28;20208;-81
2024/01/10 05:52:50;;;;;;;12.07;10.40;;;-1.50;1.00;;;;;;5049963;28;20280;-78
2024/01/10 05:55:19;;;;;;;19.40;12.00;;;-1.50;1.00;;;;;;5052869;28;20198;-79
2024/01/10 05:57:47;;;;;;;14.25;9.50;;;-1.50;1.00;;;;;;5048376;28;20221;-76
2024/01/10 06:00:16;;;;;;;17.02;10.93;;;-1.50;1.00;;;;;;5050999;28;20319;-77
2024/01/10 06:02:45;;;;;;;14.75;10.07;;;-1.50;1.00;;;;;;5049583;28;20248;-78
2024/01/10 06:05:13;;;;;;;17.02;10.32;;;-1.40;1.00;;;;;;5054133;28;20299;-79
2024/01/10 06:07:42;;;;;;;21.15;12.25;;;-1.50;1.00;;;;;;5049387;28;20746;-77
2024/01/10 06:10:12;;;;;;;20.23;11.27;;;-1.60;1.00;;;;;;5041727;28;20212;-79
2024/01/10 06:12:40;;;;;;;15.85;11.88;;;-1.60;1.00;;;;;;5050720;28;20217;-79
2024/01/10 06:15:09;;;;;;;16.10;11.05;;;-1.60;1.00;;;;;;5045003;28;20205;-77
2024/01/10 06:17:38;;;;;;;18.50;12.05;;;-1.60;1.00;;;;;;5052981;28;20235;-78
2024/01/10 06:20:08;;;;;;;15.90;11.50;;;-1.70;1.00;;;;;;5054360;28;20259;-79
2024/01/10 06:22:37;;;;;;;20.83;12.30;;;-1.70;1.00;;;;;;5049163;28;20300;-77
2024/01/10 06:25:06;;;;;;;18.42;11.77;;;-1.70;1.00;;;;;;5050550;28;20206;-78
2024/01/10 06:27:36;;;;;;;17.25;11.60;;;-1.70;1.00;;;;;;5047042;28;20213;-77
2024/01/10 06:30:07;;;;;;;18.00;11.85;;;-1.70;1.00;;;;;;5044409;28;20217;-77
2024/01/10 06:32:36;;;;;;;17.20;10.85;;;-1.70;1.00;;;;;;5047896;28;20216;-77
2024/01/10 06:35:05;;;;;;;16.50;9.93;;;-1.70;1.00;;;;;;5049994;28;20189;-78
2024/01/10 06:37:33;;;;;;;16.42;11.27;;;-1.80;1.00;;;;;;5053760;28;20226;-77
2024/01/10 06:40:05;;;;;;;14.13;10.27;;;-1.80;1.00;;;;;;5053435;28;20317;-79
2024/01/10 06:42:34;;;;;;;20.33;11.60;;;-1.90;1.00;;;;;;5057507;28;20713;-76
2024/01/10 06:45:06;;;;;;;19.83;12.68;;;-1.90;1.00;;;;;;5052229;28;20198;-78
2024/01/10 06:47:35;;;;;;;19.15;12.60;;;-1.90;1.00;;;;;;5050395;28;20197;-78
2024/01/10 06:50:05;;;;;;;17.80;11.63;;;-1.90;1.00;;;;;;5049526;28;20197;-76
2024/01/10 06:52:33;;;;;;;16.35;10.80;;;-1.80;1.00;;;;;;5045417;28;20217;-77
2024/01/10 06:55:04;;;;;;;15.43;11.02;;;-1.80;1.00;;;;;;5047261;28;20209;-78
2024/01/10 06:57:32;;;;;;;13.30;11.50;;;-1.80;1.00;;;;;;5054346;28;20213;-78
2024/01/10 07:00:02;;;;;;;17.27;11.35;;;-1.70;1.00;;;;;;5054044;28;20324;-77
2024/01/10 07:02:35;;;;;;;15.38;11.48;;;-1.80;1.00;;;;;;5051581;28;20229;-78
2024/01/10 07:05:07;;;;;;;18.95;11.85;;;-1.80;1.00;;;;;;5053357;28;20209;-78
2024/01/10 07:07:36;;;;;;;18.48;11.95;;;-1.90;1.00;;;;;;5053037;28;20202;-76
2024/01/10 07:10:05;;;;;;;18.25;12.25;;;-1.90;1.00;;;;;;5051710;28;20198;-78
2024/01/10 07:12:34;;;;;;;19.80;11.27;;;-1.90;1.00;;;;;;5051945;28;20224;-77
2024/01/10 07:15:03;;;;;;;15.18;10.55;;;-1.90;6.40;;;;;;5050886;28;20201;-78
2024/01/10 07:17:33;;;;;;;19.58;11.90;;;-1.90;1.00;;;;;;5051755;28;20772;-77
2024/01/10 07:20:03;;;;;;;19.48;11.07;;;-2.00;1.00;;;;;;5049082;28;20217;-77
2024/01/10 07:22:33;;;;;;;17.20;12.50;;;-2.00;1.00;;;;;;5046881;28;20243;-77
2024/01/10 07:25:01;;;;;;;20.35;11.70;;;-2.00;1.00;;;;;;5051279;28;20197;-77
2024/01/10 07:27:29;;;;;;;20.42;11.93;;;-2.00;1.00;;;;;;5049485;28;20201;-78
2024/01/10 07:29:59;;;;;;;19.95;12.48;;;-1.90;1.00;;;;;;5048234;28;20284;-77
2024/01/10 07:32:27;;;;;;;17.25;12.20;;;-1.90;1.00;;;;;;5048565;28;20213;-78
2024/01/10 07:34:58;;;;;;;19.02;12.52;;;-1.80;1.00;;;;;;5042932;28;20284;-78
2024/01/10 07:37:26;;;;;;;18.75;13.15;;;-1.80;1.00;;;;;;5047045;28;20739;-76
2024/01/10 07:39:57;;;;;;;16.45;12.10;;;-1.70;1.00;;;;;;5051554;28;20190;-77
2024/01/10 07:42:25;;;;;;;18.02;12.40;;;-1.70;1.30;;;;;;5046670;28;20240;-77
2024/01/10 07:44:54;;;;;;;20.17;12.98;;;-1.70;1.30;;;;;;5046045;28;20222;-77
2024/01/10 07:47:22;;;;;;;26.40;13.55;;;-1.70;1.90;;;;;;5043136;28;20289;-76
2024/01/10 07:49:51;;;;;;;19.67;13.70;;;-1.70;1.80;;;;;;5050355;28;20205;-78
2024/01/10 07:52:21;;;;;;;24.25;12.32;;;-1.70;2.40;;;;;;5048633;28;20218;-78
2024/01/10 07:54:52;;;;;;;18.73;11.80;;;-1.70;2.20;;;;;;5049162;28;20220;-78
2024/01/10 07:57:20;;;;;;;15.27;12.65;;;-1.70;3.20;;;;;;5041603;28;20208;-76
2024/01/10 07:59:49;;;;;;;19.15;12.32;;;-1.60;3.00;;;;;;5045866;28;20197;-79
2024/01/10 08:02:17;;;;;;;16.58;10.77;;;-1.60;3.20;;;;;;5042986;28;20252;-77
2024/01/10 08:04:46;;;;;;;16.83;13.45;;;-1.60;2.80;;;;;;5048034;28;20653;-76
2024/01/10 08:07:14;;;;;;;21.08;13.23;;;-1.60;3.40;;;;;;5050278;28;20225;-77
2024/01/10 08:09:44;;;;;;;16.77;13.18;;;-1.50;5.30;;;;;;5051926;28;20208;-77
2024/01/10 08:12:13;;;;;;;20.40;12.95;;;-1.50;4.20;;;;;;5050413;28;20304;-78
2024/01/10 08:14:45;;;;;;;18.23;12.63;;;-1.40;4.40;;;;;;5040241;28;20197;-76
2024/01/10 08:17:14;;;;;;;16.45;11.95;;;-1.20;7.10;;;;;;5046640;28;20201;-76
2024/01/10 08:19:43;;;;;;;17.05;12.43;;;-1.10;7.10;;;;;;5050168;28;20225;-77
2024/01/10 08:22:13;;;;;;;24.05;14.38;;;-1.00;6.20;;;;;;5051808;28;20266;-78
2024/01/10 08:24:44;;;;;;;22.48;16.55;;;-0.90;5.80;;;;;;5053763;28;20689;-78
2024/01/10 08:27:13;;;;;;;22.42;15.02;;;-0.90;5.90;;;;;;5047116;28;20209;-79
2024/01/10 08:29:41;;;;;;;22.63;14.48;;;-0.70;7.60;;;;;;5047980;28;20266;-77
2024/01/10 08:32:10;;;;;;;23.63;15.57;;;-0.70;6.20;;;;;;5048817;28;20212;-77
2024/01/10 08:34:38;;;;;;;24.08;15.20;;;-0.70;4.70;;;;;;5049550;28;20193;-76
2024/01/10 08:37:07;;;;;;;20.95;12.70;;;-0.60;6.00;;;;;;5054218;28;20616;-77
2024/01/10 08:39:36;;;;;;;23.02;14.27;;;-0.40;4.90;;;;;;5052102;28;20266;-77
2024/01/10 08:42:09;;;;;;;21.70;13.38;;;-0.50;3.50;;;;;;5039334;28;20196;-76
2024/01/10 08:44:38;;;;;;;22.17;13.60;;;-0.40;3.60;;;;;;5047896;28;20324;-77
2024/01/10 08:47:06;;;;;;;17.55;13.05;;;-0.40;2.70;;;;;;5046197;28;20220;-76
2024/01/10 08:49:36;;;;;;;20.40;12.25;;;-0.30;2.60;;;;;;5050484;28;20231;-78
2024/01/10 08:52:05;;;;;;;20.92;13.35;;;-0.20;2.70;;;;;;5049362;28;20695;-77
2024/01/10 08:54:33;;;;;;;21.48;14.00;;;-0.20;1.90;;;;;;5051227;28;20225;-77
2024/01/10 08:57:03;;;;;;;19.95;14.27;;;-0.10;2.40;;;;;;5050537;28;20201;-78
2024/01/10 08:59:32;;;;;;;20.00;13.10;;;-0.10;1.40;;;;;;5049832;28;20223;-77
2024/01/10 09:02:02;;;;;;;22.67;13.57;;;0.00;1.00;;;;;;5052893;28;20228;-77
2024/01/10 09:04:31;;;;;;;21.20;14.23;;;0.00;1.00;;;;;;5049083;28;20974;-80
2024/01/10 09:07:03;;;;;;;17.90;13.95;;;0.00;1.00;;;;;;5051403;28;20212;-75
2024/01/10 09:09:31;;;;;;;20.65;13.45;;;-0.10;1.00;;;;;;5055390;28;20190;-77
2024/01/10 09:12:01;;;;;;;22.52;14.40;;;0.00;1.00;;;;;;5054840;28;20220;-78
2024/01/10 09:14:29;;;;;;;19.38;13.75;;;0.00;1.00;;;;;;5052468;28;20221;-76
2024/01/10 09:17:02;;;;;;;20.50;14.55;;;0.10;1.00;;;;;;5065181;28;20300;-76
2024/01/10 09:19:31;;;;;;;19.05;13.20;;;0.20;1.00;;;;;;5054219;28;20217;-79
2024/01/10 09:21:59;;;;;;;19.60;14.88;;;0.10;1.00;;;;;;5056132;28;20200;-77
2024/01/10 09:24:28;;;;;;;18.77;12.75;;;0.20;1.00;;;;;;5053415;28;20288;-78
2024/01/10 09:26:57;;;;;;;19.27;13.13;;;0.00;1.00;;;;;;5059242;28;20201;-77
2024/01/10 09:29:27;;;;;;;19.77;14.45;;;0.30;1.00;;;;;;5051012;28;20316;-76
2024/01/10 09:31:56;;;;;;;17.88;14.13;;;0.30;1.00;;;;;;5051960;28;20856;-78
2024/01/10 09:34:26;;;;;;;20.33;14.40;;;0.10;1.00;;;;;;5045694;28;20679;-78
2024/01/10 09:36:54;;;;;;;20.20;14.68;;;0.10;1.00;;;;;;5053982;28;20205;-77
2024/01/10 09:39:23;;;;;;;26.02;16.75;;;0.30;1.00;;;;;;5052199;28;21094;-78
2024/01/10 09:41:52;;;;;;;19.80;14.43;;;0.40;1.00;;;;;;5055245;28;20274;-76
2024/01/10 09:44:22;;;;;;;18.35;13.05;;;0.40;1.00;;;;;;5055335;28;20198;-76
2024/01/10 09:46:53;;;;;;;22.58;15.00;;;0.70;1.00;;;;;;5057079;28;20287;-78
2024/01/10 09:49:23;;;;;;;15.10;13.43;;;1.10;2.80;;;;;;5054096;28;20689;-78
2024/01/10 09:51:59;;;;;;;20.65;14.57;;;1.30;2.30;;;;;;5055159;28;21105;-76
2024/01/10 09:54:30;;;;;;;20.48;13.82;;;1.60;2.30;;;;;;5052422;28;20200;-77
2024/01/10 09:56:59;;;;;;;21.30;14.32;;;1.90;4.30;;;;;;5049967;28;20193;-78
2024/01/10 09:59:27;;;;;;;18.85;14.15;;;2.30;5.90;;;;;;5054429;28;20204;-77
2024/01/10 10:01:58;;;;;;;22.35;14.93;;;2.50;5.60;;;;;;5052415;28;20235;-78
2024/01/10 10:04:29;;;;;;;22.48;14.50;;;2.70;4.50;;;;;;5057253;28;20204;-78
2024/01/10 10:07:02;;;;;;;22.20;13.60;;;3.10;5.60;;;;;;5055602;28;20197;-77
2024/01/10 10:09:32;;;;;;;18.48;13.23;;;3.30;5.00;;;;;;5056232;28;20751;-78
2024/01/10 10:12:00;;;;;;;18.88;13.55;;;3.80;8.90;;;;;;5053699;28;20210;-79
2024/01/10 10:14:31;;;;;;;23.40;15.90;;;4.50;10.70;;;;;;5053102;28;20193;-77
2024/01/10 10:17:16;;;;;;;27.30;15.37;;;4.60;7.80;;;;;;5058736;28;20461;-79
2024/01/10 10:19:45;;;;;;;20.33;14.93;;;5.00;8.80;;;;;;5054643;28;20476;-78
2024/01/10 10:22:15;;;;;;;20.87;15.10;;;5.20;7.50;;;;;;5052627;28;20668;-78
2024/01/10 10:24:50;;;;;;;19.63;14.03;;;5.50;8.50;;;;;;5055154;28;20505;-78
2024/01/10 10:27:18;;;;;;;25.63;15.73;;;5.70;7.20;;;;;;5055449;28;20463;-77
2024/01/10 10:29:46;;;;;;;18.67;14.13;;;6.10;10.40;;;;;;5053058;28;20556;-78
2024/01/10 10:32:18;;;;;;;22.80;14.70;;;6.70;13.30;;;;;;5055162;28;20477;-79
2024/01/10 10:34:47;;;;;;;22.00;15.67;;;7.30;14.60;;;;;;5055401;28;20444;-77
2024/01/10 10:37:17;;;;;;;22.20;15.40;;;8.10;18.00;;;;;;5053000;28;21004;-78
2024/01/10 10:39:45;;;;;;;22.70;15.40;;;8.90;21.30;;;;;;5055845;28;20472;-79
2024/01/10 10:42:16;;;;;;;24.33;16.37;;;8.90;20.30;;;;;;5053344;28;20555;-78
2024/01/10 10:44:45;;;;;;;22.00;15.90;;;9.00;19.30;;;;;;5056909;28;20461;-80
2024/01/10 10:47:16;;;;;;;25.73;16.60;;;9.60;22.80;;;;;;5051056;28;20541;-78
2024/01/10 10:49:54;;;;;;;21.33;14.10;;;10.10;24.50;;;;;;5052200;28;20464;-77
2024/01/10 10:52:25;;;;;;;20.43;15.33;;;10.20;23.60;;;;;;5049825;28;20462;-79
2024/01/10 10:54:57;;;;;;;21.27;15.07;;;10.50;24.50;;;;;;5052365;28;20462;-80
2024/01/10 10:57:27;;;;;;;18.73;15.20;;;10.70;25.00;;;;;;5057909;28;20443;-78
2024/01/10 10:59:58;;;;;;;19.27;15.53;;;10.00;19.80;;;;;;5048646;28;20534;-80
2024/01/10 11:02:26;;;;;;;21.10;16.67;;;9.70;15.70;;;;;;5051273;28;20528;-79
2024/01/10 11:05:00;;;;;;;20.33;15.07;;;8.80;10.30;;;;;;5056441;28;20460;-78
2024/01/10 11:07:30;;;;;;;22.97;14.47;;;7.50;1.00;;;;;;5054756;28;20501;-78
2024/01/10 11:10:00;;;;;;;20.00;15.40;;;6.80;1.00;;;;;;5054284;28;20443;-79
2024/01/10 11:12:46;;;;;;;22.40;15.50;;;6.10;1.00;;;;;;5055700;28;20459;-79
2024/01/10 11:15:25;;;;;;;19.57;14.40;;;5.60;1.00;;;;;;5046961;28;20983;-77
2024/01/10 11:18:12;;;;;;;25.40;16.70;;;5.40;1.00;;;;;;5056437;28;20457;-80
2024/01/10 11:20:56;;;;;;;21.40;14.97;;;5.60;1.00;;;;;;5046073;28;20472;-80
2024/01/10 11:23:44;;;;;;;21.00;15.40;;;5.60;1.00;;;;;;5043381;28;20558;-81
2024/01/10 11:26:13;;;;;;;21.90;16.07;;;5.50;1.00;;;;;;5053645;28;20459;-80
2024/01/10 11:28:42;;;;;;;21.70;16.20;;;5.70;1.00;;;;;;5037549;28;21177;-77
2024/01/10 11:31:12;;;;;;;20.37;16.10;;;6.50;1.00;;;;;;5042346;28;20440;-79
2024/01/10 11:33:43;;;;;;;19.87;14.87;;;6.60;1.00;;;;;;5039821;28;20472;-79
2024/01/10 11:36:14;;;;;;;22.20;14.83;;;6.20;1.00;;;;;;5044465;28;20456;-79
2024/01/10 11:38:49;;;;;;;29.80;15.80;;;5.90;1.00;;;;;;5044603;28;20457;-80
2024/01/10 11:41:22;;;;;;;23.27;15.67;;;5.50;1.00;;;;;;5047727;28;20606;-77
2024/01/10 11:44:28;;;;;;;18.77;15.30;;;5.20;1.00;;;;;;5052114;28;20471;-80
2024/01/10 11:46:58;;;;;;;22.55;14.88;;;5.00;1.00;;;;;;5040600;28;20659;-79
2024/01/10 11:49:27;;;;;;;23.20;14.87;;;4.80;1.00;;;;;;5036624;28;20772;-80
2024/01/10 11:51:57;;;;;;;21.27;15.13;;;4.80;1.00;;;;;;5037438;28;20484;-77
2024/01/10 11:54:44;;;;;;;22.00;14.93;;;4.80;1.00;;;;;;5044753;28;20494;-78
2024/01/10 11:57:14;;;;;;;21.27;16.17;;;4.80;1.00;;;;;;5053268;28;20796;-80
2024/01/10 11:59:44;;;;;;;24.73;17.07;;;4.90;1.00;;;;;;5056962;28;20447;-77
2024/01/10 12:02:14;;;;;;;18.00;13.43;;;4.90;1.00;;;;;;5049673;28;20576;-79
2024/01/10 12:04:44;;;;;;;21.60;14.43;;;4.80;1.00;;;;;;5053388;28;20213;-79
2024/01/10 12:07:17;;;;;;;20.25;15.02;;;4.80;1.00;;;;;;5042465;28;21098;-79
2024/01/10 12:09:49;;;;;;;19.27;14.57;;;5.00;1.00;;;;;;5046134;28;20212;-78
2024/01/10 12:12:18;;;;;;;23.08;16.60;;;4.80;1.00;;;;;;5052079;28;20459;-78
2024/01/10 12:14:47;;;;;;;20.55;14.20;;;4.70;1.00;;;;;;5040942;28;20205;-79
2024/01/10 12:17:16;;;;;;;27.98;15.57;;;4.60;1.00;;;;;;5041829;28;20197;-79
2024/01/10 12:19:47;;;;;;;21.60;15.27;;;4.60;1.00;;;;;;5049348;28;20206;-77
2024/01/10 12:22:17;;;;;;;20.00;14.97;;;4.80;1.00;;;;;;5046864;28;20303;-78
2024/01/10 12:24:50;;;;;;;19.40;13.97;;;5.00;1.00;;;;;;5050445;28;20633;-79
2024/01/10 12:27:20;;;;;;;23.20;15.15;;;5.00;1.00;;;;;;5060361;28;20530;-79
2024/01/10 12:29:51;;;;;;;16.70;13.68;;;5.20;1.00;;;;;;5057211;28;20670;-78
2024/01/10 12:32:22;;;;;;;18.70;13.67;;;5.20;1.00;;;;;;5050697;28;20220;-78
2024/01/10 12:34:59;;;;;;;21.00;14.53;;;5.40;1.00;;;;;;5056244;28;20475;-78
2024/01/10 12:37:28;;;;;;;21.88;16.60;;;5.30;1.00;;;;;;5050628;28;20955;-77
2024/01/10 12:39:58;;;;;;;20.87;15.90;;;5.10;1.00;;;;;;5055209;28;20210;-78
2024/01/10 12:42:26;;;;;;;20.00;14.27;;;5.10;1.00;;;;;;5054430;28;20464;-78
2024/01/10 12:44:55;;;;;;;18.42;14.18;;;5.10;1.00;;;;;;5052481;28;20523;-78
2024/01/10 12:47:26;;;;;;;19.47;13.10;;;5.00;1.00;;;;;;5046642;28;20197;-77
2024/01/10 12:49:55;;;;;;;18.88;13.00;;;4.90;1.00;;;;;;5050859;28;20991;-77
2024/01/10 12:52:24;;;;;;;16.27;12.80;;;5.00;1.00;;;;;;5045342;28;20214;-77